createdAt,value
2016-05-01T00:00:52.075Z,1024.26
2016-05-01T00:01:39.359Z,1024.24
2016-05-01T00:02:39.377Z,1024.25
2016-05-01T00:03:39.380Z,1024.2
2016-05-01T00:04:40.007Z,1024.22
2016-05-01T00:05:39.417Z,1024.21
2016-05-01T00:06:40.029Z,1024.2
2016-05-01T00:07:39.452Z,1024.23
2016-05-01T00:08:39.456Z,1024.21
2016-05-01T00:09:39.474Z,1024.24
2016-05-01T00:10:39.477Z,1024.25
2016-05-01T00:11:39.495Z,1024.29
2016-05-01T00:12:39.513Z,1024.28
2016-05-01T00:13:39.532Z,1024.34
2016-05-01T00:14:52.269Z,1024.4
2016-05-01T00:15:39.552Z,1024.36
2016-05-01T00:16:39.571Z,1024.39
2016-05-01T00:17:39.590Z,1024.45
2016-05-01T00:18:52.326Z,1024.49
2016-05-01T00:19:39.610Z,1024.49
2016-05-01T00:20:39.629Z,1024.56
2016-05-01T00:21:39.646Z,1024.52
2016-05-01T00:22:39.649Z,1024.56
2016-05-01T00:23:40.276Z,1024.54
2016-05-01T00:25:52.439Z,1024.57
2016-05-01T00:26:39.707Z,1024.51
2016-05-01T00:28:05.397Z,1024.46
2016-05-01T00:28:49.384Z,1024.5
2016-05-01T00:29:49.387Z,1024.46
2016-05-01T00:30:49.406Z,1024.44
2016-05-01T00:31:50.034Z,1024.43
2016-05-01T00:33:02.176Z,1024.46
2016-05-01T00:33:49.445Z,1024.47
2016-05-01T00:35:08.698Z,1024.45
2016-05-01T00:35:49.481Z,1024.47
2016-05-01T00:37:15.156Z,1024.49
2016-05-01T00:37:49.502Z,1024.48
2016-05-01T00:39:58.977Z,1024.48
2016-05-01T00:40:58.995Z,1024.55
2016-05-01T00:41:58.997Z,1024.58
2016-05-01T00:42:59.016Z,1024.59
2016-05-01T00:44:08.628Z,1024.61
2016-05-01T00:45:08.693Z,1024.59
2016-05-01T00:46:21.401Z,1024.63
2016-05-01T00:47:08.682Z,1024.66
2016-05-01T00:48:08.686Z,1024.67
2016-05-01T00:49:21.440Z,1024.68
2016-05-01T00:50:08.706Z,1024.71
2016-05-01T00:51:08.724Z,1024.76
2016-05-01T00:52:09.352Z,1024.73
2016-05-01T00:53:08.762Z,1024.78
2016-05-01T00:54:08.765Z,1024.76
2016-05-01T00:55:08.782Z,1024.76
2016-05-01T00:56:34.476Z,1024.8
2016-05-01T00:57:08.820Z,1024.74
2016-05-01T00:59:08.840Z,1024.81
2016-05-01T01:00:08.843Z,1024.84
2016-05-01T01:01:08.876Z,1024.86
2016-05-01T01:02:08.879Z,1024.89
2016-05-01T01:03:08.898Z,1024.91
2016-05-01T01:04:08.916Z,1024.94
2016-05-01T01:05:08.934Z,1024.91
2016-05-01T01:06:08.936Z,1024.95
2016-05-01T01:07:08.955Z,1024.98
2016-05-01T01:08:08.974Z,1025.02
2016-05-01T01:09:08.977Z,1025.05
2016-05-01T01:10:09.197Z,1025.04
2016-05-01T01:11:09.013Z,1025.05
2016-05-01T01:12:09.031Z,1025.07
2016-05-01T01:13:09.033Z,1025.03
2016-05-01T01:14:09.065Z,1025.1
2016-05-01T01:15:15.332Z,1025.09
2016-05-01T01:16:09.085Z,1025.12
2016-05-01T01:17:09.087Z,1025.12
2016-05-01T01:18:15.372Z,1025.13
2016-05-01T01:19:09.125Z,1025.12
2016-05-01T01:20:09.143Z,1025.16
2016-05-01T01:21:21.883Z,1025.17
2016-05-01T01:22:09.164Z,1025.2
2016-05-01T01:23:34.856Z,1025.2
2016-05-01T01:24:09.185Z,1025.18
2016-05-01T01:25:09.203Z,1025.17
2016-05-01T01:26:21.958Z,1025.2
2016-05-01T01:27:09.239Z,1025.21
2016-05-01T01:28:28.448Z,1025.18
2016-05-01T01:29:09.260Z,1025.21
2016-05-01T01:30:09.264Z,1025.21
2016-05-01T01:31:09.282Z,1025.22
2016-05-01T01:32:15.565Z,1025.24
2016-05-01T01:33:09.318Z,1025.18
2016-05-01T01:34:09.321Z,1025.24
2016-05-01T01:35:28.561Z,1025.24
2016-05-01T01:36:12.358Z,1025.26
2016-05-01T01:37:12.377Z,1025.28
2016-05-01T01:38:15.518Z,1025.27
2016-05-01T01:39:15.538Z,1025.3
2016-05-01T01:40:15.540Z,1025.34
2016-05-01T01:41:28.296Z,1025.31
2016-05-01T01:42:15.562Z,1025.32
2016-05-01T01:43:15.579Z,1025.31
2016-05-01T01:44:15.598Z,1025.3
2016-05-01T01:45:15.616Z,1025.32
2016-05-01T01:46:15.619Z,1025.28
2016-05-01T01:47:15.637Z,1025.32
2016-05-01T01:48:28.408Z,1025.34
2016-05-01T01:49:15.673Z,1025.33
2016-05-01T01:50:16.223Z,1025.35
2016-05-01T01:51:28.431Z,1025.35
2016-05-01T01:52:15.713Z,1025.4
2016-05-01T01:53:15.716Z,1025.36
2016-05-01T01:54:15.733Z,1025.33
2016-05-01T01:55:41.428Z,1025.34
2016-05-01T01:56:15.756Z,1025.3
2016-05-01T01:57:15.774Z,1025.3
2016-05-01T01:59:26.016Z,1025.35
2016-05-01T02:00:26.035Z,1025.41
2016-05-01T02:01:26.037Z,1025.34
2016-05-01T02:02:26.055Z,1025.36
2016-05-01T02:03:26.074Z,1025.37
2016-05-01T02:04:26.076Z,1025.38
2016-05-01T02:05:26.110Z,1025.4
2016-05-01T02:06:26.112Z,1025.38
2016-05-01T02:07:26.131Z,1025.36
2016-05-01T02:08:26.134Z,1025.36
2016-05-01T02:09:26.152Z,1025.32
2016-05-01T02:10:26.170Z,1025.36
2016-05-01T02:11:26.174Z,1025.33
2016-05-01T02:12:26.191Z,1025.36
2016-05-01T02:13:26.209Z,1025.4
2016-05-01T02:14:26.213Z,1025.35
2016-05-01T02:15:26.231Z,1025.4
2016-05-01T02:16:26.249Z,1025.37
2016-05-01T02:17:26.268Z,1025.43
2016-05-01T02:18:26.270Z,1025.42
2016-05-01T02:19:26.336Z,1025.38
2016-05-01T02:20:26.292Z,1025.38
2016-05-01T02:21:26.309Z,1025.39
2016-05-01T02:22:26.328Z,1025.4
2016-05-01T02:23:26.347Z,1025.45
2016-05-01T02:24:32.614Z,1025.42
2016-05-01T02:25:26.367Z,1025.44
2016-05-01T02:26:45.588Z,1025.45
2016-05-01T02:27:32.653Z,1025.48
2016-05-01T02:28:26.391Z,1025.46
2016-05-01T02:29:26.408Z,1025.46
2016-05-01T02:30:32.693Z,1025.5
2016-05-01T02:31:26.446Z,1025.48
2016-05-01T02:32:26.464Z,1025.46
2016-05-01T02:33:26.466Z,1025.48
2016-05-01T02:34:26.516Z,1025.49
2016-05-01T02:35:26.519Z,1025.45
2016-05-01T02:36:27.990Z,1025.5
2016-05-01T02:37:27.946Z,1025.46
2016-05-01T02:38:26.527Z,1025.44
2016-05-01T02:39:26.546Z,1025.43
2016-05-01T02:40:26.563Z,1025.38
2016-05-01T02:41:26.582Z,1025.4
2016-05-01T02:42:26.601Z,1025.38
2016-05-01T02:43:32.868Z,1025.38
2016-05-01T02:44:26.621Z,1025.33
2016-05-01T02:45:39.358Z,1025.36
2016-05-01T02:46:26.642Z,1025.39
2016-05-01T02:47:26.661Z,1025.41
2016-05-01T02:48:26.663Z,1025.46
2016-05-01T02:49:26.681Z,1025.47
2016-05-01T02:50:26.715Z,1025.51
2016-05-01T02:51:26.718Z,1025.56
2016-05-01T02:52:26.721Z,1025.58
2016-05-01T02:53:26.739Z,1025.57
2016-05-01T02:54:26.742Z,1025.57
2016-05-01T02:55:26.760Z,1025.58
2016-05-01T02:56:26.779Z,1025.55
2016-05-01T02:57:39.531Z,1025.54
2016-05-01T02:58:39.550Z,1025.52
2016-05-01T02:59:26.818Z,1025.56
2016-05-01T03:00:26.821Z,1025.5
2016-05-01T03:01:26.839Z,1025.53
2016-05-01T03:02:26.857Z,1025.54
2016-05-01T03:03:26.860Z,1025.47
2016-05-01T03:04:26.877Z,1025.54
2016-05-01T03:05:26.896Z,1025.5
2016-05-01T03:06:26.915Z,1025.47
2016-05-01T03:07:26.932Z,1025.51
2016-05-01T03:08:26.935Z,1025.53
2016-05-01T03:09:39.688Z,1025.53
2016-05-01T03:10:26.957Z,1025.57
2016-05-01T03:11:26.976Z,1025.61
2016-05-01T03:12:39.729Z,1025.57
2016-05-01T03:13:26.995Z,1025.54
2016-05-01T03:14:27.015Z,1025.57
2016-05-01T03:15:27.032Z,1025.58
2016-05-01T03:16:27.035Z,1025.54
2016-05-01T03:17:27.054Z,1025.55
2016-05-01T03:18:27.072Z,1025.51
2016-05-01T03:19:27.075Z,1025.49
2016-05-01T03:20:27.093Z,1025.51
2016-05-01T03:21:27.111Z,1025.5
2016-05-01T03:22:46.333Z,1025.52
2016-05-01T03:23:27.133Z,1025.54
2016-05-01T03:25:27.153Z,1025.62
2016-05-01T03:26:27.172Z,1025.63
2016-05-01T03:27:27.190Z,1025.64
2016-05-01T03:28:27.208Z,1025.66
2016-05-01T03:29:27.211Z,1025.65
2016-05-01T03:30:46.433Z,1025.64
2016-05-01T03:31:27.233Z,1025.64
2016-05-01T03:32:27.250Z,1025.65
2016-05-01T03:33:27.269Z,1025.65
2016-05-01T03:34:36.881Z,1025.69
2016-05-01T03:35:36.899Z,1025.67
2016-05-01T03:36:36.918Z,1025.72
2016-05-01T03:37:36.936Z,1025.72
2016-05-01T03:38:36.938Z,1025.71
2016-05-01T03:39:36.957Z,1025.68
2016-05-01T03:40:36.960Z,1025.74
2016-05-01T03:41:36.993Z,1025.72
2016-05-01T03:42:49.730Z,1025.72
2016-05-01T03:43:37.015Z,1025.72
2016-05-01T03:44:37.017Z,1025.74
2016-05-01T03:45:37.035Z,1025.75
2016-05-01T03:46:37.054Z,1025.73
2016-05-01T03:47:37.056Z,1025.77
2016-05-01T03:48:37.075Z,1025.71
2016-05-01T03:49:37.092Z,1025.73
2016-05-01T03:50:37.470Z,1025.69
2016-05-01T03:51:37.114Z,1025.68
2016-05-01T03:52:37.132Z,1025.68
2016-05-01T03:53:37.151Z,1025.68
2016-05-01T03:54:37.154Z,1025.68
2016-05-01T03:55:37.172Z,1025.72
2016-05-01T03:56:37.175Z,1025.72
2016-05-01T03:57:37.193Z,1025.71
2016-05-01T03:58:37.820Z,1025.68
2016-05-01T03:59:37.214Z,1025.69
2016-05-01T04:00:37.232Z,1025.68
2016-05-01T04:01:37.250Z,1025.71
2016-05-01T04:02:37.253Z,1025.7
2016-05-01T04:03:37.271Z,1025.72
2016-05-01T04:04:50.024Z,1025.76
2016-05-01T04:05:37.291Z,1025.74
2016-05-01T04:07:37.329Z,1025.78
2016-05-01T04:08:37.347Z,1025.78
2016-05-01T04:09:46.709Z,1025.8
2016-05-01T04:10:46.727Z,1025.82
2016-05-01T04:11:52.996Z,1025.87
2016-05-01T04:14:03.252Z,1025.88
2016-05-01T04:15:03.254Z,1025.91
2016-05-01T04:16:03.273Z,1025.94
2016-05-01T04:17:16.025Z,1025.98
2016-05-01T04:18:03.293Z,1025.97
2016-05-01T04:19:03.312Z,1025.97
2016-05-01T04:20:16.345Z,1025.98
2016-05-01T04:21:03.348Z,1026
2016-05-01T04:22:03.351Z,1026.01
2016-05-01T04:23:03.978Z,1026.04
2016-05-01T04:24:16.106Z,1026.02
2016-05-01T04:25:03.389Z,1026.02
2016-05-01T04:26:22.611Z,1026.02
2016-05-01T04:27:03.427Z,1026.03
2016-05-01T04:28:03.430Z,1026.03
2016-05-01T04:29:03.448Z,1026.02
2016-05-01T04:30:12.967Z,1026.01
2016-05-01T04:31:12.969Z,1026.01
2016-05-01T04:33:28.242Z,1025.98
2016-05-01T04:34:28.261Z,1025.96
2016-05-01T04:36:37.891Z,1025.96
2016-05-01T04:37:37.894Z,1025.92
2016-05-01T04:39:06.771Z,1025.97
2016-05-01T04:39:50.555Z,1025.93
2016-05-01T04:40:50.590Z,1025.96
2016-05-01T04:41:50.592Z,1025.95
2016-05-01T04:43:00.235Z,1025.98
2016-05-01T04:44:00.254Z,1026
2016-05-01T04:45:00.271Z,1026.08
2016-05-01T04:46:00.274Z,1026.03
2016-05-01T04:47:00.293Z,1026.06
2016-05-01T04:48:00.296Z,1026.05
2016-05-01T04:49:19.518Z,1026.12
2016-05-01T04:50:00.630Z,1026.12
2016-05-01T04:51:00.350Z,1026.15
2016-05-01T04:52:09.963Z,1026.18
2016-05-01T04:53:09.981Z,1026.21
2016-05-01T04:54:10.000Z,1026.25
2016-05-01T04:55:10.003Z,1026.23
2016-05-01T04:56:11.442Z,1026.23
2016-05-01T04:57:22.773Z,1026.25
2016-05-01T04:58:35.716Z,1026.22
2016-05-01T04:59:29.266Z,1026.23
2016-05-01T05:00:10.078Z,1026.27
2016-05-01T05:01:10.096Z,1026.3
2016-05-01T05:02:16.411Z,1026.3
2016-05-01T05:04:31.483Z,1026.3
2016-05-01T05:05:25.405Z,1026.3
2016-05-01T05:06:37.972Z,1026.28
2016-05-01T05:07:25.253Z,1026.29
2016-05-01T05:08:25.256Z,1026.25
2016-05-01T05:09:25.275Z,1026.27
2016-05-01T05:10:25.293Z,1026.32
2016-05-01T05:11:25.296Z,1026.33
2016-05-01T05:12:38.066Z,1026.37
2016-05-01T05:13:25.332Z,1026.37
2016-05-01T05:14:25.350Z,1026.45
2016-05-01T05:15:25.368Z,1026.47
2016-05-01T05:16:25.387Z,1026.49
2016-05-01T05:17:38.142Z,1026.49
2016-05-01T05:18:25.407Z,1026.45
2016-05-01T05:19:51.100Z,1026.45
2016-05-01T05:20:55.634Z,1026.49
2016-05-01T05:21:36.450Z,1026.48
2016-05-01T05:22:36.453Z,1026.51
2016-05-01T05:23:46.331Z,1026.53
2016-05-01T05:24:46.240Z,1026.6
2016-05-01T05:25:46.850Z,1026.63
2016-05-01T05:26:46.276Z,1026.7
2016-05-01T05:27:46.279Z,1026.67
2016-05-01T05:30:01.550Z,1026.7
2016-05-01T05:31:27.239Z,1026.63
2016-05-01T05:32:11.164Z,1026.61
2016-05-01T05:33:11.183Z,1026.64
2016-05-01T05:34:11.200Z,1026.64
2016-05-01T05:35:20.516Z,1026.61
2016-05-01T05:36:20.534Z,1026.6
2016-05-01T05:37:30.150Z,1026.65
2016-05-01T05:38:30.167Z,1026.64
2016-05-01T05:39:30.185Z,1026.66
2016-05-01T05:41:45.441Z,1026.63
2016-05-01T05:42:45.459Z,1026.65
2016-05-01T05:43:58.228Z,1026.67
2016-05-01T05:44:45.480Z,1026.69
2016-05-01T05:45:45.499Z,1026.69
2016-05-01T05:47:01.393Z,1026.79
2016-05-01T05:47:48.676Z,1026.75
2016-05-01T05:49:14.366Z,1026.82
2016-05-01T05:49:58.432Z,1026.79
2016-05-01T05:51:24.122Z,1026.81
2016-05-01T05:51:58.468Z,1026.88
2016-05-01T05:54:39.398Z,1026.94
2016-05-01T05:55:13.742Z,1026.96
2016-05-01T05:57:29.497Z,1027.02
2016-05-01T05:58:16.781Z,1027.03
2016-05-01T05:59:16.799Z,1027.06
2016-05-01T06:00:19.927Z,1027.11
2016-05-01T06:01:29.711Z,1027.13
2016-05-01T06:02:29.557Z,1027.12
2016-05-01T06:03:29.731Z,1027.08
2016-05-01T06:04:29.797Z,1027.1
2016-05-01T06:05:29.769Z,1027.1
2016-05-01T06:06:29.850Z,1027.04
2016-05-01T06:07:36.073Z,1027
2016-05-01T06:08:29.963Z,1027.03
2016-05-01T06:09:29.780Z,1027.08
2016-05-01T06:10:29.798Z,1027.11
2016-05-01T06:11:29.815Z,1027.09
2016-05-01T06:12:29.822Z,1027.12
2016-05-01T06:13:29.900Z,1027.1
2016-05-01T06:14:29.809Z,1027.11
2016-05-01T06:15:29.828Z,1027.11
2016-05-01T06:16:42.630Z,1027.12
2016-05-01T06:17:29.802Z,1027.11
2016-05-01T06:18:29.819Z,1027.11
2016-05-01T06:19:29.838Z,1027.12
2016-05-01T06:20:29.903Z,1027.15
2016-05-01T06:21:29.875Z,1027.16
2016-05-01T06:22:29.893Z,1027.17
2016-05-01T06:23:29.896Z,1027.16
2016-05-01T06:24:29.946Z,1027.2
2016-05-01T06:25:29.933Z,1027.17
2016-05-01T06:26:29.998Z,1027.2
2016-05-01T06:27:29.969Z,1027.22
2016-05-01T06:28:29.987Z,1027.23
2016-05-01T06:29:30.006Z,1027.24
2016-05-01T06:30:30.024Z,1027.25
2016-05-01T06:31:30.026Z,1027.19
2016-05-01T06:32:30.061Z,1027.23
2016-05-01T06:33:30.063Z,1027.17
2016-05-01T06:34:30.081Z,1027.17
2016-05-01T06:35:30.444Z,1027.13
2016-05-01T06:36:30.134Z,1027.16
2016-05-01T06:37:30.137Z,1027.13
2016-05-01T06:38:30.156Z,1027.16
2016-05-01T06:39:30.173Z,1027.16
2016-05-01T06:40:30.192Z,1027.16
2016-05-01T06:41:30.210Z,1027.16
2016-05-01T06:42:42.950Z,1027.15
2016-05-01T06:43:30.231Z,1027.18
2016-05-01T06:44:30.250Z,1027.19
2016-05-01T06:45:30.283Z,1027.14
2016-05-01T06:46:30.302Z,1027.11
2016-05-01T06:47:30.305Z,1027.23
2016-05-01T06:48:30.322Z,1027.1
2016-05-01T06:49:30.560Z,1027.12
2016-05-01T06:50:30.359Z,1027.13
2016-05-01T06:51:30.406Z,1027.08
2016-05-01T06:52:30.466Z,1027.05
2016-05-01T06:53:30.527Z,1027.14
2016-05-01T06:54:30.588Z,1027.18
2016-05-01T06:55:30.649Z,1027.18
2016-05-01T06:56:30.692Z,1027.21
2016-05-01T06:57:30.741Z,1027.17
2016-05-01T06:58:30.744Z,1027.21
2016-05-01T06:59:30.777Z,1027.13
2016-05-01T07:00:37.088Z,1027.19
2016-05-01T07:01:30.838Z,1027.15
2016-05-01T07:02:30.862Z,1027.17
2016-05-01T07:03:30.901Z,1027.18
2016-05-01T07:04:30.925Z,1027.18
2016-05-01T07:05:30.996Z,1027.16
2016-05-01T07:06:30.970Z,1027.18
2016-05-01T07:07:30.974Z,1027.21
2016-05-01T07:08:30.995Z,1027.21
2016-05-01T07:09:31.031Z,1027.27
2016-05-01T07:10:43.790Z,1027.28
2016-05-01T07:11:31.072Z,1027.32
2016-05-01T07:12:31.089Z,1027.36
2016-05-01T07:13:31.110Z,1027.4
2016-05-01T07:14:31.127Z,1027.39
2016-05-01T07:15:31.163Z,1027.43
2016-05-01T07:16:31.166Z,1027.44
2016-05-01T07:17:31.185Z,1027.45
2016-05-01T07:18:31.219Z,1027.36
2016-05-01T07:19:31.223Z,1027.35
2016-05-01T07:20:31.256Z,1027.35
2016-05-01T07:21:31.275Z,1027.37
2016-05-01T07:22:31.277Z,1027.31
2016-05-01T07:23:31.296Z,1027.36
2016-05-01T07:24:31.315Z,1027.39
2016-05-01T07:25:31.332Z,1027.41
2016-05-01T07:26:31.351Z,1027.43
2016-05-01T07:27:31.384Z,1027.41
2016-05-01T07:28:31.387Z,1027.43
2016-05-01T07:29:31.406Z,1027.42
2016-05-01T07:30:31.424Z,1027.47
2016-05-01T07:31:31.442Z,1027.47
2016-05-01T07:32:31.476Z,1027.5
2016-05-01T07:33:31.479Z,1027.51
2016-05-01T07:34:31.514Z,1027.48
2016-05-01T07:35:31.516Z,1027.46
2016-05-01T07:36:31.550Z,1027.48
2016-05-01T07:37:31.552Z,1027.5
2016-05-01T07:38:31.587Z,1027.48
2016-05-01T07:39:31.589Z,1027.49
2016-05-01T07:40:31.607Z,1027.55
2016-05-01T07:41:31.641Z,1027.5
2016-05-01T07:42:31.660Z,1027.53
2016-05-01T07:43:31.678Z,1027.53
2016-05-01T07:44:31.696Z,1027.49
2016-05-01T07:45:31.714Z,1027.54
2016-05-01T07:46:31.717Z,1027.53
2016-05-01T07:47:31.752Z,1027.51
2016-05-01T07:48:31.769Z,1027.56
2016-05-01T07:49:31.804Z,1027.63
2016-05-01T07:50:31.806Z,1027.57
2016-05-01T07:51:31.824Z,1027.56
2016-05-01T07:52:31.858Z,1027.62
2016-05-01T07:53:31.860Z,1027.59
2016-05-01T07:54:31.895Z,1027.58
2016-05-01T07:55:31.898Z,1027.56
2016-05-01T07:56:31.916Z,1027.66
2016-05-01T07:57:31.934Z,1027.61
2016-05-01T07:58:31.953Z,1027.72
2016-05-01T07:59:31.987Z,1027.68
2016-05-01T08:00:32.005Z,1027.62
2016-05-01T08:01:32.023Z,1027.66
2016-05-01T08:02:32.042Z,1027.68
2016-05-01T08:03:32.075Z,1027.66
2016-05-01T08:04:32.078Z,1027.73
2016-05-01T08:05:32.111Z,1027.73
2016-05-01T08:06:32.131Z,1027.71
2016-05-01T08:07:32.133Z,1027.72
2016-05-01T08:08:32.150Z,1027.73
2016-05-01T08:09:32.170Z,1027.76
2016-05-01T08:10:32.189Z,1027.68
2016-05-01T08:11:32.222Z,1027.73
2016-05-01T08:12:32.241Z,1027.7
2016-05-01T08:13:32.258Z,1027.69
2016-05-01T08:14:32.277Z,1027.69
2016-05-01T08:15:32.294Z,1027.68
2016-05-01T08:16:32.313Z,1027.69
2016-05-01T08:17:32.332Z,1027.67
2016-05-01T08:18:32.350Z,1027.66
2016-05-01T08:19:32.368Z,1027.67
2016-05-01T08:20:32.387Z,1027.64
2016-05-01T08:21:32.421Z,1027.69
2016-05-01T08:22:32.424Z,1027.68
2016-05-01T08:23:32.458Z,1027.66
2016-05-01T08:24:32.476Z,1027.68
2016-05-01T08:25:32.493Z,1027.7
2016-05-01T08:26:45.249Z,1027.71
2016-05-01T08:27:32.531Z,1027.72
2016-05-01T08:28:32.564Z,1027.71
2016-05-01T08:29:32.568Z,1027.72
2016-05-01T08:30:32.602Z,1027.71
2016-05-01T08:31:32.604Z,1027.73
2016-05-01T08:32:32.637Z,1027.72
2016-05-01T08:33:32.641Z,1027.76
2016-05-01T08:34:32.737Z,1027.72
2016-05-01T08:35:33.256Z,1027.79
2016-05-01T08:36:32.712Z,1027.84
2016-05-01T08:37:32.729Z,1027.83
2016-05-01T08:38:32.748Z,1027.86
2016-05-01T08:39:32.782Z,1027.84
2016-05-01T08:40:32.800Z,1027.88
2016-05-01T08:41:32.802Z,1027.84
2016-05-01T08:42:32.837Z,1027.83
2016-05-01T08:43:32.855Z,1027.85
2016-05-01T08:44:34.279Z,1027.8
2016-05-01T08:45:39.157Z,1027.87
2016-05-01T08:46:52.116Z,1027.84
2016-05-01T08:47:48.884Z,1027.88
2016-05-01T08:48:36.166Z,1027.84
2016-05-01T08:49:36.183Z,1027.95
2016-05-01T08:50:36.249Z,1027.89
2016-05-01T08:51:45.723Z,1027.89
2016-05-01T08:52:45.757Z,1027.94
2016-05-01T08:53:45.774Z,1027.91
2016-05-01T08:54:45.810Z,1027.91
2016-05-01T08:55:45.812Z,1027.95
2016-05-01T08:56:45.829Z,1027.94
2016-05-01T08:57:45.865Z,1027.93
2016-05-01T08:58:45.882Z,1027.95
2016-05-01T08:59:58.635Z,1027.92
2016-05-01T09:00:58.669Z,1027.95
2016-05-01T09:02:05.140Z,1027.94
2016-05-01T09:02:48.955Z,1027.92
2016-05-01T09:04:14.646Z,1027.91
2016-05-01T09:04:58.554Z,1027.95
2016-05-01T09:05:58.589Z,1027.95
2016-05-01T09:06:58.592Z,1028.01
2016-05-01T09:07:58.625Z,1027.98
2016-05-01T09:09:17.862Z,1027.94
2016-05-01T09:09:58.661Z,1027.96
2016-05-01T09:11:24.367Z,1027.94
2016-05-01T09:11:58.917Z,1027.96
2016-05-01T09:12:58.733Z,1027.93
2016-05-01T09:14:11.485Z,1027.9
2016-05-01T09:14:58.769Z,1027.95
2016-05-01T09:15:58.803Z,1027.93
2016-05-01T09:16:58.822Z,1027.93
2016-05-01T09:17:58.839Z,1027.9
2016-05-01T09:18:58.858Z,1027.91
2016-05-01T09:19:58.892Z,1027.93
2016-05-01T09:20:59.848Z,1027.93
2016-05-01T09:21:58.929Z,1027.9
2016-05-01T09:22:58.951Z,1027.88
2016-05-01T09:23:58.970Z,1027.95
2016-05-01T09:24:58.988Z,1027.93
2016-05-01T09:25:59.022Z,1027.93
2016-05-01T09:26:59.041Z,1027.97
2016-05-01T09:27:59.059Z,1027.94
2016-05-01T09:29:11.812Z,1027.94
2016-05-01T09:29:59.205Z,1027.9
2016-05-01T09:30:59.114Z,1027.88
2016-05-01T09:31:59.131Z,1027.89
2016-05-01T09:32:59.167Z,1027.87
2016-05-01T09:33:59.184Z,1027.88
2016-05-01T09:34:59.203Z,1027.87
2016-05-01T09:35:59.221Z,1027.88
2016-05-01T09:36:59.256Z,1027.84
2016-05-01T09:37:59.273Z,1027.88
2016-05-01T09:38:59.308Z,1027.82
2016-05-01T09:39:59.325Z,1027.89
2016-05-01T09:40:59.344Z,1027.8
2016-05-01T09:41:59.361Z,1027.76
2016-05-01T09:42:59.397Z,1027.82
2016-05-01T09:43:59.415Z,1027.78
2016-05-01T09:44:59.417Z,1027.81
2016-05-01T09:45:59.452Z,1027.77
2016-05-01T09:46:59.469Z,1027.8
2016-05-01T09:47:59.488Z,1027.82
2016-05-01T09:48:59.522Z,1027.77
2016-05-01T09:49:59.540Z,1027.75
2016-05-01T09:50:59.558Z,1027.76
2016-05-01T09:51:59.577Z,1027.76
2016-05-01T09:52:59.611Z,1027.74
2016-05-01T09:53:59.629Z,1027.76
2016-05-01T09:54:59.646Z,1027.74
2016-05-01T09:55:59.713Z,1027.77
2016-05-01T09:56:59.684Z,1027.75
2016-05-01T09:57:59.717Z,1027.73
2016-05-01T09:58:59.737Z,1027.75
2016-05-01T09:59:59.755Z,1027.75
2016-05-01T10:00:59.788Z,1027.69
2016-05-01T10:01:59.807Z,1027.71
2016-05-01T10:02:59.825Z,1027.71
2016-05-01T10:03:59.843Z,1027.75
2016-05-01T10:04:59.878Z,1027.74
2016-05-01T10:05:59.895Z,1027.69
2016-05-01T10:06:59.915Z,1027.75
2016-05-01T10:07:59.932Z,1027.76
2016-05-01T10:08:59.950Z,1027.7
2016-05-01T10:09:59.969Z,1027.75
2016-05-01T10:11:00.003Z,1027.75
2016-05-01T10:12:00.022Z,1027.73
2016-05-01T10:13:12.789Z,1027.75
2016-05-01T10:14:00.072Z,1027.74
2016-05-01T10:15:00.092Z,1027.69
2016-05-01T10:16:00.126Z,1027.72
2016-05-01T10:17:00.128Z,1027.7
2016-05-01T10:18:00.163Z,1027.71
2016-05-01T10:19:00.180Z,1027.74
2016-05-01T10:20:00.199Z,1027.75
2016-05-01T10:21:00.233Z,1027.74
2016-05-01T10:22:00.252Z,1027.72
2016-05-01T10:23:00.255Z,1027.74
2016-05-01T10:24:00.397Z,1027.74
2016-05-01T10:25:13.041Z,1027.76
2016-05-01T10:26:00.418Z,1027.77
2016-05-01T10:27:00.343Z,1027.75
2016-05-01T10:28:00.360Z,1027.72
2016-05-01T10:29:00.395Z,1027.73
2016-05-01T10:30:00.413Z,1027.75
2016-05-01T10:31:00.448Z,1027.76
2016-05-01T10:32:00.466Z,1027.74
2016-05-01T10:33:13.234Z,1027.75
2016-05-01T10:34:00.502Z,1027.73
2016-05-01T10:35:00.536Z,1027.73
2016-05-01T10:36:00.554Z,1027.71
2016-05-01T10:37:00.572Z,1027.72
2016-05-01T10:38:00.607Z,1027.66
2016-05-01T10:39:00.626Z,1027.68
2016-05-01T10:40:00.643Z,1027.65
2016-05-01T10:41:00.692Z,1027.7
2016-05-01T10:42:00.695Z,1027.66
2016-05-01T10:43:00.713Z,1027.72
2016-05-01T10:44:00.733Z,1027.78
2016-05-01T10:45:00.767Z,1027.74
2016-05-01T10:46:00.784Z,1027.77
2016-05-01T10:47:00.803Z,1027.77
2016-05-01T10:48:01.930Z,1027.75
2016-05-01T10:49:00.855Z,1027.76
2016-05-01T10:50:00.919Z,1027.72
2016-05-01T10:51:01.141Z,1027.68
2016-05-01T10:52:00.973Z,1027.7
2016-05-01T10:53:01.038Z,1027.66
2016-05-01T10:54:00.963Z,1027.7
2016-05-01T10:55:00.996Z,1027.66
2016-05-01T10:56:00.999Z,1027.65
2016-05-01T10:57:01.032Z,1027.76
2016-05-01T10:58:01.051Z,1027.7
2016-05-01T10:59:01.069Z,1027.68
2016-05-01T11:00:01.103Z,1027.74
2016-05-01T11:01:01.184Z,1027.7
2016-05-01T11:02:01.156Z,1027.64
2016-05-01T11:03:01.174Z,1027.71
2016-05-01T11:04:01.192Z,1027.72
2016-05-01T11:05:01.210Z,1027.69
2016-05-01T11:06:01.245Z,1027.62
2016-05-01T11:07:01.262Z,1027.63
2016-05-01T11:08:01.281Z,1027.62
2016-05-01T11:09:01.300Z,1027.7
2016-05-01T11:10:01.333Z,1027.67
2016-05-01T11:11:01.351Z,1027.67
2016-05-01T11:12:14.120Z,1027.67
2016-05-01T11:13:01.404Z,1027.64
2016-05-01T11:14:01.422Z,1027.74
2016-05-01T11:15:01.456Z,1027.66
2016-05-01T11:16:01.475Z,1027.67
2016-05-01T11:17:01.492Z,1027.66
2016-05-01T11:18:01.527Z,1027.61
2016-05-01T11:19:01.545Z,1027.69
2016-05-01T11:20:01.564Z,1027.65
2016-05-01T11:21:01.582Z,1027.67
2016-05-01T11:22:01.616Z,1027.66
2016-05-01T11:23:01.634Z,1027.67
2016-05-01T11:24:01.668Z,1027.64
2016-05-01T11:25:02.296Z,1027.78
2016-05-01T11:26:01.736Z,1027.7
2016-05-01T11:27:01.723Z,1027.66
2016-05-01T11:28:01.757Z,1027.66
2016-05-01T11:29:01.791Z,1027.73
2016-05-01T11:30:01.810Z,1027.66
2016-05-01T11:31:01.827Z,1027.73
2016-05-01T11:32:01.846Z,1027.6
2016-05-01T11:33:01.879Z,1027.63
2016-05-01T11:34:01.898Z,1027.58
2016-05-01T11:35:01.932Z,1027.62
2016-05-01T11:36:01.951Z,1027.62
2016-05-01T11:38:05.128Z,1027.65
2016-05-01T11:39:05.162Z,1027.55
2016-05-01T11:40:14.820Z,1027.61
2016-05-01T11:41:14.839Z,1027.63
2016-05-01T11:42:27.592Z,1027.56
2016-05-01T11:43:14.891Z,1027.57
2016-05-01T11:44:14.894Z,1027.58
2016-05-01T11:45:15.021Z,1027.57
2016-05-01T11:46:14.961Z,1027.52
2016-05-01T11:47:14.964Z,1027.51
2016-05-01T11:48:15.014Z,1027.54
2016-05-01T11:49:15.032Z,1027.56
2016-05-01T11:50:27.786Z,1027.52
2016-05-01T11:51:15.069Z,1027.53
2016-05-01T11:52:15.102Z,1027.5
2016-05-01T11:53:15.122Z,1027.49
2016-05-01T11:54:15.139Z,1027.46
2016-05-01T11:55:15.158Z,1027.47
2016-05-01T11:56:15.176Z,1027.56
2016-05-01T11:57:15.210Z,1027.53
2016-05-01T11:58:15.260Z,1027.56
2016-05-01T11:59:27.996Z,1027.5
2016-05-01T12:00:15.280Z,1027.46
2016-05-01T12:01:15.283Z,1027.53
2016-05-01T12:02:15.317Z,1027.52
2016-05-01T12:03:15.335Z,1027.46
2016-05-01T12:04:15.369Z,1027.51
2016-05-01T12:05:15.387Z,1027.46
2016-05-01T12:06:15.406Z,1027.45
2016-05-01T12:07:15.423Z,1027.48
2016-05-01T12:08:15.443Z,1027.46
2016-05-01T12:09:28.212Z,1027.4
2016-05-01T12:10:15.495Z,1027.52
2016-05-01T12:11:28.263Z,1027.45
2016-05-01T12:12:15.531Z,1027.42
2016-05-01T12:13:15.550Z,1027.41
2016-05-01T12:14:15.568Z,1027.4
2016-05-01T12:15:15.602Z,1027.41
2016-05-01T12:16:15.620Z,1027.43
2016-05-01T12:17:16.247Z,1027.38
2016-05-01T12:18:15.672Z,1027.43
2016-05-01T12:19:15.691Z,1027.41
2016-05-01T12:20:16.303Z,1027.42
2016-05-01T12:21:15.728Z,1027.38
2016-05-01T12:22:28.481Z,1027.41
2016-05-01T12:23:28.499Z,1027.37
2016-05-01T12:24:34.985Z,1027.39
2016-05-01T12:25:15.800Z,1027.33
2016-05-01T12:26:15.835Z,1027.39
2016-05-01T12:27:28.588Z,1027.36
2016-05-01T12:28:15.887Z,1027.39
2016-05-01T12:29:15.890Z,1027.35